CST,Max TemperatureF,Mean TemperatureF,Min TemperatureF,Max Dew PointF,MeanDew PointF,Min DewpointF,Max Humidity, Mean Humidity, Min Humidity, Max Sea Level PressureIn, Mean Sea Level PressureIn, Min Sea Level PressureIn, Max VisibilityMiles, Mean VisibilityMiles, Min VisibilityMiles, Max Wind SpeedMPH, Mean Wind SpeedMPH, Max Gust SpeedMPH,PrecipitationIn, CloudCover, Events, WindDirDegrees
2011-12-1,37,27,17,30,23,10,87,69,47,30.61,30.35,29.93,10,10,8,33,19,46,0.00,5,,6
2011-12-2,37,24,11,24,16,8,84,66,44,30.59,30.25,30.01,10,10,8,16,7,26,0.00,1,,190
2011-12-3,32,25,18,30,27,16,100,91,79,30.22,30.01,29.94,10,4,0,28,12,36,0.22,7,Fog-Rain-Snow,12
2011-12-4,31,20,9,19,14,5,92,77,59,30.48,30.30,30.21,10,10,10,20,7,,0.00,2,,287
2011-12-5,21,15,8,12,8,5,84,75,67,30.64,30.57,30.44,10,10,6,23,15,26,T,4,Snow,341
2011-12-6,20,8,-5,9,2,-9,87,74,60,30.57,30.41,30.26,10,10,10,12,6,,0.00,0,,247
2011-12-7,39,24,8,25,16,1,88,69,53,30.25,30.22,30.17,10,10,10,15,8,20,0.00,0,,289
2011-12-8,34,24,13,28,21,9,93,84,72,30.35,30.24,30.13,10,9,3,13,5,,0.00,4,,9
2011-12-9,36,25,14,27,20,12,96,87,70,30.52,30.41,30.27,10,6,0,9,4,,0.00,3,Fog,320
2011-12-10,39,26,13,30,20,10,93,85,65,30.51,30.42,30.30,10,7,0,12,4,,0.00,0,Fog,226
2011-12-11,41,33,25,36,30,23,93,85,75,30.28,30.10,29.97,10,7,4,18,10,28,0.00,6,,190
2011-12-12,38,35,32,36,33,30,100,90,81,30.26,30.12,30.00,10,7,4,12,6,,0.00,8,,235
2011-12-13,43,38,33,42,37,32,100,97,93,30.25,30.11,29.91,8,2,0,18,7,23,0.27,8,Fog-Rain,120
2011-12-14,50,42,34,46,40,27,100,90,59,30.06,29.81,29.73,10,5,0,20,5,23,T,5,Fog-Rain,335
2011-12-15,43,33,22,27,21,16,85,64,35,30.42,30.31,30.11,10,10,10,14,5,,0.00,0,,333
2011-12-16,46,34,21,30,23,17,85,71,49,30.44,30.40,30.34,10,10,10,20,5,24,0.00,0,,260
2011-12-17,54,40,25,29,24,20,82,66,31,30.46,30.40,30.30,10,10,10,10,6,,0.00,0,,268
2011-12-18,54,39,24,36,29,23,92,79,51,30.27,30.03,29.88,10,10,8,10,3,,0.00,0,,252
2011-12-19,36,31,25,30,26,22,89,79,69,30.22,30.09,29.87,10,10,10,25,13,36,T,6,,22
2011-12-20,39,30,21,23,21,16,88,75,39,30.18,30.05,29.85,10,5,1,29,18,37,T,6,Snow,354
2011-12-21,50,35,20,30,25,19,88,72,44,30.04,29.86,29.77,10,10,10,16,7,,0.00,3,,331
2011-12-22,35,26,16,32,25,10,96,83,67,30.54,30.30,30.02,10,8,2,23,16,34,T,6,Snow,12
2011-12-23,42,27,11,22,15,7,84,67,38,30.53,30.43,30.34,10,10,10,12,6,,0.00,0,,274
2011-12-24,50,36,22,22,19,16,82,62,32,30.47,30.42,30.37,10,10,10,13,8,,0.00,0,,297
2011-12-25,51,36,21,25,21,18,85,62,36,30.55,30.46,30.33,10,10,10,12,7,,0.00,0,,313
2011-12-26,48,35,21,25,22,18,84,60,42,30.28,30.10,29.94,10,10,10,17,7,24,0.00,0,,275
2011-12-27,50,37,24,24,21,18,81,60,28,30.25,30.15,30.04,10,10,10,15,9,,0.00,0,,263
2011-12-28,56,41,25,31,24,20,78,56,30,30.08,29.99,29.92,10,10,10,10,8,20,0.00,0,,263
2011-12-29,61,47,33,36,30,25,78,58,32,29.91,29.78,29.60,10,10,10,33,9,48,0.00,1,,277
2011-12-30,57,44,31,30,25,19,73,53,24,30.01,29.90,29.77,10,10,10,17,11,28,0.00,0,,257
2011-12-31,60,45,29,34,27,12,89,60,16,30.26,29.82,29.54,10,10,4,39,17,55,0.06,3,Rain,296